Time;durP1;ratioP1;P1;durP2;ratioP2;P2;SDS_P1;SDS_P2;PMS_P1;PMS_P2;Temp;Humidity;BMP_temperature;BMP_pressure;BME280_temperature;BME280_humidity;BME280_pressure;Samples;Min_cycle;Max_cycle;Signal;HPM_P1;HPM_P2
2022/04/23 00:00:39;;;;;;;7.53;5.60;;;10.90;99.90;;;;;;5051661;28;20049;-70
2022/04/23 00:03:08;;;;;;;12.18;6.78;;;10.90;99.90;;;;;;5051183;28;20077;-70
2022/04/23 00:05:36;;;;;;;8.93;6.10;;;10.70;99.90;;;;;;5052286;28;20520;-70
2022/04/23 00:08:03;;;;;;;12.30;6.57;;;10.80;99.90;;;;;;5052565;28;20434;-69
2022/04/23 00:10:30;;;;;;;10.52;6.40;;;10.70;99.90;;;;;;5052787;28;20045;-70
2022/04/23 00:12:57;;;;;;;10.30;6.85;;;10.70;99.90;;;;;;5050973;28;20119;-70
2022/04/23 00:15:25;;;;;;;13.90;7.25;;;10.70;99.90;;;;;;5051206;28;20131;-69
2022/04/23 00:17:52;;;;;;;12.30;6.43;;;10.60;99.90;;;;;;5050665;28;20134;-70
2022/04/23 00:20:23;;;;;;;12.52;6.32;;;10.60;99.90;;;;;;5052934;28;20060;-69
2022/04/23 00:22:49;;;;;;;;;;;10.60;99.90;;;;;;5051596;28;20135;-69
2022/04/23 00:25:16;;;;;;;10.57;6.30;;;10.50;99.90;;;;;;5050842;28;20368;-69
2022/04/23 00:27:43;;;;;;;13.25;7.28;;;10.50;99.90;;;;;;5050953;28;20106;-69
2022/04/23 00:30:10;;;;;;;10.52;6.70;;;10.50;99.90;;;;;;5052667;28;20041;-69
2022/04/23 00:32:37;;;;;;;11.55;7.30;;;10.50;99.90;;;;;;5051988;28;20378;-70
2022/04/23 00:35:06;;;;;;;9.13;6.53;;;10.50;99.90;;;;;;5052527;28;20057;-69
2022/04/23 00:37:34;;;;;;;13.77;7.18;;;10.40;99.90;;;;;;5052445;28;20386;-69
2022/04/23 00:40:06;;;;;;;14.52;7.53;;;10.40;99.90;;;;;;5051773;28;20049;-69
2022/04/23 00:42:33;;;;;;;14.10;7.78;;;10.40;99.90;;;;;;5052425;28;20052;-69
2022/04/23 00:45:00;;;;;;;10.55;7.97;;;10.40;99.90;;;;;;5051235;28;20053;-69
2022/04/23 00:47:26;;;;;;;12.75;8.18;;;10.30;99.90;;;;;;5050598;28;20056;-70
2022/04/23 00:49:54;;;;;;;10.23;8.15;;;10.30;99.90;;;;;;5052098;28;20122;-69
2022/04/23 00:52:20;;;;;;;11.20;7.43;;;10.30;99.90;;;;;;5051461;28;20084;-69
2022/04/23 00:54:49;;;;;;;15.77;8.13;;;10.30;99.90;;;;;;5050612;28;20107;-69
2022/04/23 00:57:15;;;;;;;16.02;7.95;;;10.30;99.90;;;;;;5052075;28;20566;-69
2022/04/23 00:59:43;;;;;;;14.25;7.88;;;10.30;99.90;;;;;;5051374;28;20493;-69
2022/04/23 01:02:10;;;;;;;13.70;8.02;;;10.20;99.90;;;;;;5011313;28;20174;-69
2022/04/23 01:04:37;;;;;;;12.82;8.07;;;10.20;99.90;;;;;;5051183;28;20092;-69
2022/04/23 01:07:05;;;;;;;15.95;8.45;;;10.20;99.90;;;;;;5051719;28;20493;-69
2022/04/23 01:09:32;;;;;;;14.05;8.63;;;10.20;99.90;;;;;;5032404;28;20080;-69
2022/04/23 01:12:01;;;;;;;13.98;8.35;;;10.20;99.90;;;;;;5031323;28;20099;-69
2022/04/23 01:14:28;;;;;;;10.80;8.10;;;10.10;99.90;;;;;;5030245;28;20103;-69
2022/04/23 01:16:55;;;;;;;12.38;7.70;;;10.10;99.90;;;;;;5031907;28;20513;-68
2022/04/23 01:19:22;;;;;;;19.35;8.85;;;10.10;99.90;;;;;;5031025;28;20115;-68
2022/04/23 01:21:50;;;;;;;11.93;8.23;;;10.10;99.90;;;;;;5042948;28;20493;-69
2022/04/23 01:24:18;;;;;;;13.85;8.90;;;10.10;99.90;;;;;;5050943;28;20048;-69
2022/04/23 01:26:45;;;;;;;15.43;8.88;;;10.00;99.90;;;;;;5051761;28;20049;-70
2022/04/23 01:29:12;;;;;;;16.38;9.65;;;10.00;99.90;;;;;;5051110;28;20512;-69
2022/04/23 01:31:39;;;;;;;13.73;9.32;;;10.00;99.90;;;;;;5051916;28;20044;-67
2022/04/23 01:34:06;;;;;;;15.25;9.48;;;10.00;99.90;;;;;;5051938;28;20558;-68
2022/04/23 01:36:32;;;;;;;13.85;10.10;;;10.00;99.90;;;;;;5051714;28;20053;-69
2022/04/23 01:39:00;;;;;;;15.32;9.15;;;10.00;99.90;;;;;;5055600;28;20463;-69
2022/04/23 01:41:27;;;;;;;15.32;8.80;;;10.00;99.90;;;;;;5054537;28;20088;-70
2022/04/23 01:43:54;;;;;;;12.85;9.18;;;10.00;99.90;;;;;;5053755;28;20080;-69
2022/04/23 01:46:21;;;;;;;12.32;9.13;;;10.00;99.90;;;;;;5055533;28;20045;-70
2022/04/23 01:48:49;;;;;;;13.52;9.85;;;9.90;99.90;;;;;;5053900;28;20083;-69
2022/04/23 01:51:16;;;;;;;11.90;9.32;;;9.90;99.90;;;;;;5053666;28;20059;-70
2022/04/23 01:53:43;;;;;;;13.70;9.40;;;9.90;99.90;;;;;;5054099;28;20049;-70
2022/04/23 01:56:12;;;;;;;14.90;9.60;;;9.90;99.90;;;;;;5053875;28;20590;-70
2022/04/23 01:58:39;;;;;;;15.07;10.23;;;9.90;99.90;;;;;;5054437;28;20405;-70
2022/04/23 02:01:05;;;;;;;14.43;9.00;;;9.80;99.90;;;;;;5054519;28;20057;-69
2022/04/23 02:03:35;;;;;;;13.35;8.65;;;9.80;99.90;;;;;;5054506;28;20392;-70
2022/04/23 02:06:02;;;;;;;13.77;9.57;;;9.90;99.90;;;;;;5055050;28;20047;-70
2022/04/23 02:08:28;;;;;;;14.90;10.02;;;9.90;99.90;;;;;;5054908;28;20079;-69
2022/04/23 02:10:55;;;;;;;15.63;10.02;;;9.80;99.90;;;;;;5054287;28;20103;-69
2022/04/23 02:13:24;;;;;;;14.20;10.18;;;9.80;99.90;;;;;;5054767;28;20048;-69
2022/04/23 02:15:51;;;;;;;15.00;9.13;;;9.80;99.90;;;;;;5054987;28;20048;-69
2022/04/23 02:18:17;;;;;;;14.27;10.00;;;9.80;99.90;;;;;;5054162;28;20080;-69
2022/04/23 02:20:45;;;;;;;12.77;9.70;;;9.70;99.90;;;;;;5054863;28;20110;-69
2022/04/23 02:23:11;;;;;;;14.27;9.60;;;9.80;99.90;;;;;;5054477;28;20504;-69
2022/04/23 02:25:38;;;;;;;16.42;9.60;;;9.80;99.90;;;;;;5054261;28;20045;-69
2022/04/23 02:28:06;;;;;;;18.33;10.32;;;9.80;99.90;;;;;;5052981;28;20202;-69
2022/04/23 02:30:34;;;;;;;16.85;9.70;;;9.80;99.90;;;;;;5037000;28;20393;-69
2022/04/23 02:33:01;;;;;;;19.13;10.38;;;9.70;99.90;;;;;;5054132;28;20045;-69
2022/04/23 02:35:28;;;;;;;16.42;9.55;;;9.70;99.90;;;;;;5054058;28;20512;-69
2022/04/23 02:37:57;;;;;;;15.52;9.98;;;9.70;99.90;;;;;;5054341;28;20107;-69
2022/04/23 02:40:25;;;;;;;16.52;10.35;;;9.70;99.90;;;;;;5053751;28;20049;-69
2022/04/23 02:42:53;;;;;;;15.40;9.25;;;9.70;99.90;;;;;;5054430;28;20056;-70
2022/04/23 02:45:21;;;;;;;16.15;9.73;;;9.60;99.90;;;;;;5054445;28;20056;-70
2022/04/23 02:47:50;;;;;;;14.32;8.88;;;9.70;99.90;;;;;;5053105;28;20496;-71
2022/04/23 02:50:25;;;;;;;14.00;8.85;;;9.60;99.90;;;;;;5054210;28;20397;-69
2022/04/23 02:52:52;;;;;;;11.40;9.25;;;9.60;99.90;;;;;;5052167;28;20343;-69
2022/04/23 02:55:19;;;;;;;15.82;10.13;;;9.60;99.90;;;;;;5053777;28;20057;-69
2022/04/23 02:57:46;;;;;;;12.45;8.55;;;9.70;99.90;;;;;;5054030;28;20126;-68
2022/04/23 03:00:13;;;;;;;14.88;9.60;;;9.70;99.90;;;;;;5053716;28;20049;-68
2022/04/23 03:02:40;;;;;;;13.43;8.80;;;9.60;99.90;;;;;;5052265;28;20124;-70
2022/04/23 03:05:10;;;;;;;14.38;9.30;;;9.70;99.90;;;;;;5053336;28;20053;-69
2022/04/23 03:07:38;;;;;;;15.95;9.68;;;9.70;99.90;;;;;;5053692;28;20053;-68
2022/04/23 03:10:06;;;;;;;12.90;8.95;;;9.60;99.90;;;;;;5054046;28;20045;-68
2022/04/23 03:12:35;;;;;;;17.40;9.40;;;9.60;99.90;;;;;;5054125;28;20044;-68
2022/04/23 03:15:02;;;;;;;11.35;8.95;;;9.60;99.90;;;;;;5051893;28;20057;-68
2022/04/23 03:17:30;;;;;;;12.75;8.43;;;9.60;99.90;;;;;;5052391;28;20409;-68
2022/04/23 03:19:58;;;;;;;12.52;9.40;;;9.70;99.90;;;;;;5052495;28;20136;-68
2022/04/23 03:22:26;;;;;;;12.77;9.23;;;9.60;99.90;;;;;;5052035;28;20091;-69
2022/04/23 03:24:53;;;;;;;12.73;8.18;;;9.60;99.90;;;;;;5053407;28;20053;-69
2022/04/23 03:27:20;;;;;;;17.88;9.25;;;9.60;99.90;;;;;;5052133;28;20052;-69
2022/04/23 03:29:47;;;;;;;12.48;9.27;;;9.60;99.90;;;;;;5051398;28;20060;-69
2022/04/23 03:32:14;;;;;;;14.55;8.82;;;9.60;99.90;;;;;;5053030;28;20500;-69
2022/04/23 03:34:41;;;;;;;10.95;8.82;;;9.60;99.90;;;;;;5051930;28;20091;-68
2022/04/23 03:37:08;;;;;;;11.95;8.77;;;9.60;99.90;;;;;;5052746;28;20045;-69
2022/04/23 03:39:36;;;;;;;12.10;8.75;;;9.60;99.90;;;;;;5052131;28;20056;-69
2022/04/23 03:42:04;;;;;;;12.88;9.15;;;9.50;99.90;;;;;;5051365;28;20052;-70
2022/04/23 03:44:31;;;;;;;10.45;8.63;;;9.50;99.90;;;;;;5053119;28;20045;-69
2022/04/23 03:46:58;;;;;;;11.30;9.02;;;9.50;99.90;;;;;;5051615;28;20463;-69
2022/04/23 03:49:25;;;;;;;12.98;8.40;;;9.50;99.90;;;;;;5051342;28;20087;-70
2022/04/23 03:51:52;;;;;;;13.55;9.18;;;9.50;99.90;;;;;;5068247;28;20053;-70
2022/04/23 03:54:19;;;;;;;11.15;8.45;;;9.50;99.90;;;;;;5051537;28;20053;-70
2022/04/23 03:56:48;;;;;;;16.00;9.45;;;9.40;99.90;;;;;;5050968;28;20048;-71
2022/04/23 03:59:20;;;;;;;12.50;9.13;;;9.40;99.90;;;;;;5052248;28;20081;-70
2022/04/23 04:01:47;;;;;;;15.30;8.90;;;9.40;99.90;;;;;;5051413;28;20063;-69
2022/04/23 04:04:14;;;;;;;12.23;8.57;;;9.40;99.90;;;;;;5052051;28;20497;-69
2022/04/23 04:06:41;;;;;;;12.63;9.48;;;9.40;99.90;;;;;;5052562;28;20507;-69
2022/04/23 04:09:08;;;;;;;13.25;9.77;;;9.30;99.90;;;;;;5051010;28;20057;-70
2022/04/23 04:14:17;;;;;;;12.35;9.23;;;9.30;99.90;;;;;;5051932;28;20456;-71
2022/04/23 04:16:45;;;;;;;12.90;9.30;;;9.30;99.90;;;;;;5051696;28;20547;-71
2022/04/23 04:19:14;;;;;;;13.68;8.52;;;9.20;99.90;;;;;;5051036;28;20135;-69
2022/04/23 04:21:42;;;;;;;11.57;8.70;;;9.20;99.90;;;;;;5051208;28;20048;-70
2022/04/23 04:24:12;;;;;;;12.40;9.00;;;9.10;99.90;;;;;;5051937;28;20049;-70
2022/04/23 04:26:40;;;;;;;14.93;8.60;;;9.20;99.90;;;;;;5052234;28;20053;-69
2022/04/23 04:29:07;;;;;;;13.20;9.57;;;9.20;99.90;;;;;;5057562;28;20136;-69
2022/04/23 04:31:51;;;;;;;13.15;9.50;;;9.20;99.90;;;;;;5050740;28;20057;-69
2022/04/23 04:34:19;;;;;;;13.00;9.55;;;9.10;99.90;;;;;;5051406;28;20049;-69
2022/04/23 04:36:47;;;;;;;11.73;8.93;;;9.10;99.90;;;;;;5051135;28;20128;-69
2022/04/23 04:39:15;;;;;;;13.80;9.95;;;9.10;99.90;;;;;;5051870;28;20057;-69
2022/04/23 04:41:42;;;;;;;14.25;9.30;;;9.10;99.90;;;;;;5051457;28;20057;-69
2022/04/23 04:44:10;;;;;;;11.90;8.93;;;9.10;99.90;;;;;;5052132;28;20098;-69
2022/04/23 04:46:39;;;;;;;10.75;8.48;;;9.10;99.90;;;;;;5050544;28;20084;-69
2022/04/23 04:49:07;;;;;;;11.52;9.15;;;9.10;99.90;;;;;;5052195;28;20053;-70
2022/04/23 04:51:36;;;;;;;12.80;9.82;;;9.10;99.90;;;;;;5052193;28;20049;-69
2022/04/23 04:54:04;;;;;;;13.02;9.43;;;9.10;99.90;;;;;;5051969;28;20045;-69
2022/04/23 04:56:31;;;;;;;16.10;9.90;;;9.10;99.90;;;;;;5051211;28;20505;-70
2022/04/23 04:58:58;;;;;;;12.43;9.10;;;9.10;99.90;;;;;;5050521;28;20130;-69
2022/04/23 05:01:25;;;;;;;13.32;9.25;;;9.10;99.90;;;;;;5050563;28;20052;-70
2022/04/23 05:03:53;;;;;;;11.90;9.10;;;9.10;99.90;;;;;;5052613;28;20102;-69
2022/04/23 05:06:20;;;;;;;14.35;10.10;;;9.10;99.90;;;;;;5051367;28;20052;-70
2022/04/23 05:08:47;;;;;;;12.05;9.30;;;9.10;99.90;;;;;;5051992;28;20110;-70
2022/04/23 05:11:14;;;;;;;12.27;9.60;;;9.10;99.90;;;;;;5053366;28;20053;-69
2022/04/23 05:13:41;;;;;;;14.45;10.48;;;9.10;99.90;;;;;;5035620;28;20126;-69
2022/04/23 05:16:08;;;;;;;14.10;9.57;;;9.10;99.90;;;;;;5051474;28;20049;-69
2022/04/23 05:18:36;;;;;;;12.43;9.40;;;9.10;99.90;;;;;;5034451;28;20461;-69
2022/04/23 05:21:04;;;;;;;11.77;9.57;;;9.20;99.90;;;;;;5034039;28;20576;-70
2022/04/23 05:23:31;;;;;;;11.10;8.98;;;9.20;99.90;;;;;;5035948;28;20558;-70
2022/04/23 05:25:58;;;;;;;11.95;9.25;;;9.20;99.90;;;;;;5034584;28;20556;-70
2022/04/23 05:28:25;;;;;;;13.82;9.27;;;9.20;99.90;;;;;;5053692;28;20088;-70
2022/04/23 05:30:52;;;;;;;12.20;8.85;;;9.30;99.90;;;;;;5055596;28;20099;-70
2022/04/23 05:33:19;;;;;;;12.80;8.65;;;9.30;99.90;;;;;;5054599;28;20053;-70
2022/04/23 05:35:46;;;;;;;11.98;8.43;;;9.30;99.90;;;;;;5054039;28;20095;-70
2022/04/23 05:38:14;;;;;;;12.18;9.15;;;9.40;99.90;;;;;;5053930;28;20049;-70
2022/04/23 05:40:41;;;;;;;14.55;9.48;;;9.40;99.90;;;;;;5055545;28;20080;-70
2022/04/23 05:43:08;;;;;;;13.13;8.82;;;9.50;99.90;;;;;;5054438;28;20045;-71
2022/04/23 05:45:35;;;;;;;13.45;9.05;;;9.50;99.90;;;;;;5055234;28;20119;-69
2022/04/23 05:48:02;;;;;;;12.13;9.13;;;9.60;99.90;;;;;;5055163;28;20052;-69
2022/04/23 05:50:29;;;;;;;13.40;7.90;;;9.70;99.90;;;;;;5047688;28;20108;-70
2022/04/23 05:52:56;;;;;;;10.73;7.43;;;10.20;99.90;;;;;;5052211;28;20106;-69
2022/04/23 05:55:24;;;;;;;9.95;7.57;;;10.90;99.90;;;;;;5052031;28;20060;-69
2022/04/23 05:57:51;;;;;;;12.90;8.82;;;11.10;99.90;;;;;;5051970;28;20056;-70
2022/04/23 06:00:19;;;;;;;10.35;8.18;;;11.10;99.90;;;;;;5053022;28;20037;-69
2022/04/23 06:02:46;;;;;;;11.63;7.40;;;11.40;99.90;;;;;;5051453;28;20052;-70
2022/04/23 06:05:13;;;;;;;11.40;7.65;;;11.70;99.90;;;;;;5052941;28;20163;-67
2022/04/23 06:07:40;;;;;;;12.05;7.85;;;11.70;99.90;;;;;;5051886;28;20139;-69
2022/04/23 06:10:08;;;;;;;8.73;6.57;;;12.10;99.90;;;;;;5051231;28;20053;-70
2022/04/23 06:12:36;;;;;;;11.07;7.50;;;12.30;99.90;;;;;;5053653;28;20045;-69
2022/04/23 06:15:03;;;;;;;12.70;8.07;;;12.40;99.90;;;;;;5052909;28;20111;-69
2022/04/23 06:17:30;;;;;;;16.40;7.53;;;12.60;99.90;;;;;;5052762;28;20350;-69
2022/04/23 06:19:57;;;;;;;11.68;7.72;;;12.80;99.90;;;;;;5053392;28;20542;-70
2022/04/23 06:22:24;;;;;;;10.68;7.28;;;12.90;99.90;;;;;;5052683;28;20094;-69
2022/04/23 06:24:51;;;;;;;9.57;6.43;;;13.40;99.90;;;;;;5048457;28;20084;-70
2022/04/23 06:27:19;;;;;;;10.20;6.93;;;13.80;99.90;;;;;;5053087;28;20049;-70
2022/04/23 06:29:47;;;;;;;9.73;7.82;;;14.10;99.90;;;;;;5049456;28;20532;-70
2022/04/23 06:32:14;;;;;;;13.65;8.00;;;14.20;99.90;;;;;;5051365;28;20072;-71
2022/04/23 06:34:41;;;;;;;9.05;6.78;;;14.60;99.90;;;;;;5050146;28;20499;-69
2022/04/23 06:37:08;;;;;;;10.90;7.43;;;14.80;99.90;;;;;;5050094;28;20099;-70
2022/04/23 06:39:34;;;;;;;8.77;7.47;;;15.00;99.90;;;;;;5052202;28;20049;-70
2022/04/23 06:42:01;;;;;;;17.13;7.75;;;15.60;99.90;;;;;;5051082;28;20048;-69
2022/04/23 06:44:28;;;;;;;15.20;7.88;;;15.70;98.60;;;;;;5051316;28;20056;-70
2022/04/23 06:46:56;;;;;;;9.75;6.70;;;16.00;98.80;;;;;;5051087;28;20106;-69
2022/04/23 06:49:26;;;;;;;10.32;7.85;;;16.00;97.80;;;;;;5052765;28;20044;-69
2022/04/23 06:51:52;;;;;;;10.10;7.72;;;15.90;97.40;;;;;;5050601;28;20088;-70
2022/04/23 06:54:19;;;;;;;9.35;7.45;;;16.00;97.70;;;;;;5052718;28;20110;-69
2022/04/23 06:56:46;;;;;;;11.32;8.02;;;16.30;97.00;;;;;;5051351;28;20526;-70
2022/04/23 06:59:13;;;;;;;10.73;7.82;;;16.70;96.40;;;;;;5050548;28;20053;-71
2022/04/23 07:01:41;;;;;;;12.93;7.03;;;17.00;96.20;;;;;;5052879;28;20055;-71
2022/04/23 07:04:09;;;;;;;9.65;7.22;;;17.10;95.50;;;;;;5051675;28;20040;-70
2022/04/23 07:06:37;;;;;;;10.27;7.45;;;17.10;94.70;;;;;;5050029;28;20076;-71
2022/04/23 07:09:04;;;;;;;10.55;7.35;;;17.20;94.40;;;;;;5050560;28;20092;-70
2022/04/23 07:11:31;;;;;;;11.00;6.68;;;17.30;94.10;;;;;;5051088;28;20431;-69
2022/04/23 07:13:58;;;;;;;12.40;7.93;;;17.50;94.80;;;;;;5051364;28;20041;-69
2022/04/23 07:16:25;;;;;;;10.18;7.15;;;17.90;93.40;;;;;;5050545;28;20098;-70
2022/04/23 07:18:53;;;;;;;9.55;7.13;;;17.70;92.90;;;;;;5053141;28;20409;-70
2022/04/23 07:21:21;;;;;;;8.70;7.20;;;18.10;92.80;;;;;;5048793;28;20045;-69
2022/04/23 07:24:08;;;;;;;10.15;8.02;;;18.10;92.00;;;;;;5048771;28;20552;-69
2022/04/23 07:26:36;;;;;;;8.52;6.60;;;18.30;91.60;;;;;;5049862;28;20115;-69
2022/04/23 07:29:06;;;;;;;10.75;7.80;;;18.50;90.80;;;;;;5049386;28;20056;-69
2022/04/23 07:31:34;;;;;;;9.50;7.20;;;18.60;91.20;;;;;;5052327;28;20458;-69
2022/04/23 07:39:32;;;;;;;8.88;7.13;;;19.10;89.80;;;;;;5043054;28;20138;-70
2022/04/23 07:41:59;;;;;;;9.95;7.90;;;19.30;86.30;;;;;;5051179;28;20447;-69
2022/04/23 07:44:26;;;;;;;9.45;7.05;;;19.60;87.10;;;;;;5050797;28;20488;-70
2022/04/23 07:46:53;;;;;;;7.38;6.25;;;19.90;87.00;;;;;;5051701;28;20076;-70
2022/04/23 07:49:20;;;;;;;8.43;7.03;;;20.00;85.20;;;;;;5051273;28;20048;-70
2022/04/23 07:51:50;;;;;;;8.15;6.32;;;20.40;82.90;;;;;;5050223;28;20103;-70
2022/04/23 07:54:17;;;;;;;9.43;6.83;;;20.30;81.00;;;;;;5063823;28;20488;-70
2022/04/23 07:56:44;;;;;;;7.88;6.25;;;20.30;80.90;;;;;;5065679;28;20068;-70
2022/04/23 07:59:11;;;;;;;7.55;6.20;;;20.10;79.70;;;;;;5050045;28;20126;-71
2022/04/23 08:01:38;;;;;;;10.68;7.03;;;20.10;79.40;;;;;;5050824;28;20061;-72
2022/04/23 08:04:06;;;;;;;6.97;6.03;;;20.20;79.60;;;;;;5050837;28;20049;-70
2022/04/23 08:06:35;;;;;;;8.45;6.57;;;20.50;80.10;;;;;;5049620;28;20048;-70
2022/04/23 08:09:04;;;;;;;10.88;7.35;;;20.40;78.00;;;;;;5051853;28;20075;-70
2022/04/23 08:11:30;;;;;;;8.68;6.75;;;20.30;76.50;;;;;;5049877;28;20048;-70
2022/04/23 08:13:57;;;;;;;8.13;6.43;;;20.60;78.80;;;;;;5050792;28;20049;-70
2022/04/23 08:16:27;;;;;;;9.20;6.90;;;20.90;76.60;;;;;;5050492;28;20049;-70
2022/04/23 08:18:55;;;;;;;7.38;6.68;;;20.80;75.10;;;;;;5045816;28;20056;-70
2022/04/23 08:21:22;;;;;;;8.63;6.10;;;20.40;75.50;;;;;;5049978;28;20091;-70
2022/04/23 08:23:49;;;;;;;7.43;6.72;;;20.90;76.80;;;;;;5050431;28;20045;-70
2022/04/23 08:26:17;;;;;;;15.35;6.90;;;20.70;75.40;;;;;;5049715;28;20385;-70
2022/04/23 08:31:29;;;;;;;9.05;7.20;;;20.50;74.50;;;;;;5041932;28;20056;-70
2022/04/23 08:34:01;;;;;;;13.30;6.32;;;20.70;72.10;;;;;;5050340;28;20040;-70
2022/04/23 08:36:35;;;;;;;8.45;6.63;;;20.60;73.90;;;;;;5049021;28;20128;-71
2022/04/23 08:39:04;;;;;;;10.45;7.05;;;20.40;73.10;;;;;;5048615;28;20358;-70
2022/04/23 08:41:34;;;;;;;12.82;7.70;;;20.00;73.30;;;;;;5049922;28;20053;-70
2022/04/23 08:44:05;;;;;;;10.32;6.60;;;20.20;74.20;;;;;;5049421;28;20076;-70
2022/04/23 08:46:36;;;;;;;9.85;7.15;;;20.20;74.10;;;;;;5054157;28;20049;-69
2022/04/23 08:49:09;;;;;;;8.07;7.28;;;20.40;72.40;;;;;;5053537;28;20056;-70
2022/04/23 08:51:37;;;;;;;8.57;7.25;;;20.60;71.80;;;;;;5054352;28;20103;-70
2022/04/23 08:54:07;;;;;;;6.65;6.05;;;20.40;71.90;;;;;;5055027;28;20080;-70
2022/04/23 08:56:37;;;;;;;8.73;7.13;;;20.40;71.70;;;;;;5055044;28;20053;-70
2022/04/23 08:59:06;;;;;;;;;;;20.80;71.70;;;;;;5054604;28;20128;-70
2022/04/23 09:01:33;;;;;;;10.13;6.72;;;21.20;71.40;;;;;;5054238;28;19925;-71
2022/04/23 09:04:01;;;;;;;12.65;6.80;;;21.30;71.30;;;;;;5052643;28;20091;-70
2022/04/23 09:06:39;;;;;;;11.50;6.82;;;22.00;70.40;;;;;;5054477;28;20049;-71
2022/04/23 09:09:08;;;;;;;11.25;7.50;;;21.80;70.00;;;;;;5054788;28;20053;-70
2022/04/23 09:11:36;;;;;;;9.27;6.60;;;21.70;70.00;;;;;;5052832;28;20053;-69
2022/04/23 09:14:04;;;;;;;8.93;7.03;;;21.50;70.40;;;;;;5053549;28;20405;-69
2022/04/23 09:24:45;;;;;;;7.50;6.50;;;22.00;69.30;;;;;;5069502;28;20056;-69
2022/04/23 09:27:14;;;;;;;8.73;6.40;;;21.60;69.10;;;;;;5052308;28;20056;-70
2022/04/23 09:29:42;;;;;;;8.07;7.05;;;21.50;69.80;;;;;;5052373;28;20059;-69
2022/04/23 09:32:10;;;;;;;9.68;6.40;;;21.90;69.50;;;;;;5053086;28;20045;-68
2022/04/23 09:34:38;;;;;;;9.02;7.55;;;21.80;69.90;;;;;;5037363;28;20049;-70
2022/04/23 09:37:06;;;;;;;9.70;7.82;;;22.00;69.50;;;;;;5052195;28;20413;-69
2022/04/23 09:39:34;;;;;;;9.20;6.50;;;22.10;69.30;;;;;;5049284;28;20044;-69
2022/04/23 09:42:17;;;;;;;9.25;7.13;;;22.60;70.20;;;;;;5052553;28;20127;-70
2022/04/23 09:44:45;;;;;;;11.77;6.97;;;22.70;67.80;;;;;;5054935;28;20053;-70
2022/04/23 09:47:28;;;;;;;10.52;7.60;;;22.40;67.80;;;;;;5053914;28;20057;-70
2022/04/23 09:49:55;;;;;;;8.38;7.15;;;22.40;67.50;;;;;;5054672;28;20404;-70
2022/04/23 09:52:27;;;;;;;7.38;6.60;;;22.20;68.00;;;;;;5056259;28;20052;-71
2022/04/23 09:54:56;;;;;;;9.10;7.60;;;21.80;67.50;;;;;;5054176;28;20448;-69
2022/04/23 09:57:25;;;;;;;8.45;7.57;;;21.40;68.30;;;;;;5053866;28;20060;-69
2022/04/23 09:59:52;;;;;;;8.70;7.80;;;21.80;66.60;;;;;;5055194;28;20049;-69
2022/04/23 10:02:20;;;;;;;8.30;6.68;;;22.30;66.70;;;;;;5055203;28;20051;-69
2022/04/23 10:04:47;;;;;;;13.45;7.07;;;22.40;65.80;;;;;;5055672;28;20405;-70
2022/04/23 10:07:17;;;;;;;11.15;6.82;;;21.90;64.50;;;;;;5054514;28;20103;-69
2022/04/23 10:09:48;;;;;;;8.50;6.47;;;22.50;65.60;;;;;;5052952;28;20524;-70
2022/04/23 10:12:19;;;;;;;9.90;6.70;;;22.90;63.90;;;;;;5054097;28;20110;-69
2022/04/23 10:14:55;;;;;;;10.88;6.43;;;22.70;63.40;;;;;;5055327;28;20455;-70
2022/04/23 10:17:22;;;;;;;17.42;6.93;;;22.70;63.90;;;;;;5053709;28;20452;-69
2022/04/23 10:19:49;;;;;;;11.82;6.85;;;22.40;62.70;;;;;;5054047;28;20528;-70
2022/04/23 10:22:21;;;;;;;15.23;7.28;;;22.10;63.60;;;;;;5054038;28;20500;-70
2022/04/23 10:24:59;;;;;;;10.40;6.38;;;22.10;64.20;;;;;;5053076;28;20095;-69
2022/04/23 10:27:28;;;;;;;7.82;7.00;;;22.10;62.60;;;;;;5053722;28;20110;-69
2022/04/23 10:30:02;;;;;;;8.97;6.57;;;22.70;63.50;;;;;;5052676;28;20063;-70
2022/04/23 10:32:38;;;;;;;8.02;6.82;;;22.90;63.90;;;;;;5055176;28;20489;-69
2022/04/23 10:35:32;;;;;;;6.03;5.30;;;23.20;62.40;;;;;;5054790;28;20124;-69
2022/04/23 10:38:16;;;;;;;7.13;6.43;;;23.10;61.40;;;;;;5053258;28;20052;-70
2022/04/23 10:40:43;;;;;;;10.20;6.38;;;22.70;62.40;;;;;;5054600;28;20045;-69
2022/04/23 10:43:12;;;;;;;7.05;6.00;;;22.60;63.20;;;;;;5053761;28;20060;-70
2022/04/23 10:45:41;;;;;;;8.75;6.18;;;22.90;61.60;;;;;;5053769;28;20048;-69
2022/04/23 10:48:33;;;;;;;7.60;5.50;;;23.20;61.20;;;;;;5053223;28;20048;-70
2022/04/23 10:51:16;;;;;;;10.63;5.45;;;23.40;60.40;;;;;;5053262;28;20057;-70
2022/04/23 10:53:55;;;;;;;10.98;4.90;;;23.20;59.90;;;;;;5052837;28;20053;-69
2022/04/23 10:56:23;;;;;;;8.95;5.38;;;23.30;60.60;;;;;;5053032;28;20098;-70
2022/04/23 10:58:52;;;;;;;5.72;4.88;;;23.40;60.00;;;;;;5053912;28;20057;-69
2022/04/23 11:01:25;;;;;;;5.70;4.97;;;23.70;60.00;;;;;;5054634;28;20045;-69
2022/04/23 11:04:19;;;;;;;8.10;5.00;;;23.70;59.80;;;;;;5054064;28;20049;-70
2022/04/23 11:12:33;;;;;;;6.45;4.65;;;23.90;58.50;;;;;;5030480;28;20084;-69
2022/04/23 11:15:01;;;;;;;7.82;4.05;;;24.10;58.30;;;;;;5046406;28;20131;-70
2022/04/23 11:17:58;;;;;;;8.20;5.55;;;24.00;57.50;;;;;;5051230;28;20053;-69
2022/04/23 11:20:33;;;;;;;6.00;4.25;;;23.90;57.20;;;;;;5050090;28;20049;-70
2022/04/23 11:23:01;;;;;;;7.72;4.28;;;23.90;59.10;;;;;;5051461;28;20088;-69
2022/04/23 11:25:28;;;;;;;8.93;4.57;;;24.60;58.20;;;;;;5051600;28;20043;-70
2022/04/23 11:28:01;;;;;;;7.70;4.93;;;25.00;56.80;;;;;;5050919;28;20148;-69
2022/04/23 11:30:32;;;;;;;6.38;4.90;;;24.70;56.10;;;;;;5050645;28;20048;-69
2022/04/23 11:33:13;;;;;;;6.18;4.60;;;24.50;55.70;;;;;;5052000;28;20056;-69
2022/04/23 11:35:42;;;;;;;7.07;4.47;;;24.60;55.70;;;;;;5052473;28;20047;-69
2022/04/23 11:38:19;;;;;;;6.70;4.63;;;24.40;55.10;;;;;;5064638;28;20056;-69
2022/04/23 11:40:46;;;;;;;7.13;4.53;;;24.60;56.10;;;;;;5049780;28;20045;-69
2022/04/23 11:43:27;;;;;;;6.57;4.30;;;24.80;56.00;;;;;;5052412;28;20859;-70
2022/04/23 11:45:57;;;;;;;6.07;4.80;;;24.70;55.80;;;;;;5050956;28;20068;-70
2022/04/23 11:48:25;;;;;;;5.15;4.55;;;25.00;56.00;;;;;;5049276;28;20079;-70
2022/04/23 11:50:52;;;;;;;6.93;4.88;;;25.00;55.30;;;;;;5049196;28;20132;-70
2022/04/23 11:53:19;;;;;;;5.80;4.40;;;24.90;55.40;;;;;;5046257;28;20550;-70
2022/04/23 11:55:49;;;;;;;4.95;4.18;;;25.00;55.20;;;;;;5050530;28;20049;-70
2022/04/23 11:58:20;;;;;;;6.90;4.68;;;25.10;55.40;;;;;;5050706;28;21742;-70
2022/04/23 12:00:48;;;;;;;6.75;4.45;;;25.70;56.10;;;;;;5050375;28;20084;-71
2022/04/23 12:03:25;;;;;;;6.32;4.75;;;25.50;55.40;;;;;;5050306;28;20071;-70
2022/04/23 12:05:58;;;;;;;7.30;4.75;;;25.40;55.30;;;;;;5050846;28;20073;-63
2022/04/23 12:08:25;;;;;;;7.80;4.63;;;25.00;53.90;;;;;;5051216;28;20053;-62
2022/04/23 12:10:52;;;;;;;7.65;4.72;;;25.00;55.20;;;;;;5051668;28;20582;-62
2022/04/23 12:13:19;;;;;;;6.38;4.63;;;25.00;55.90;;;;;;5050297;28;20481;-64
2022/04/23 12:15:46;;;;;;;8.75;5.43;;;24.90;55.30;;;;;;5050302;28;20178;-67
2022/04/23 12:18:14;;;;;;;7.22;4.90;;;24.90;55.20;;;;;;5049853;28;20168;-63
2022/04/23 12:20:42;;;;;;;8.20;4.53;;;24.90;55.40;;;;;;5064315;28;20063;-62
2022/04/23 12:23:10;;;;;;;6.75;4.57;;;24.80;55.70;;;;;;5051082;28;20550;-62
2022/04/23 12:25:38;;;;;;;8.18;4.95;;;24.90;55.60;;;;;;5051600;28;20475;-62
2022/04/23 12:40:43;;;;;;;7.78;4.82;;;25.00;55.50;;;;;;5051155;28;20489;-62
2022/04/23 12:42:09;;;;;;;7.47;4.85;;;24.90;55.00;;;;;;5050408;28;20060;-71
2022/04/23 12:44:39;;;;;;;5.50;4.60;;;25.10;54.20;;;;;;5051185;28;20531;-71
2022/04/23 12:47:07;;;;;;;8.20;4.40;;;25.20;54.90;;;;;;5051910;28;20276;-70
2022/04/23 12:49:47;;;;;;;5.93;3.90;;;24.90;54.20;;;;;;5050255;28;20073;-70
2022/04/23 12:52:17;;;;;;;7.43;4.40;;;25.40;53.50;;;;;;5049471;28;20159;-70
2022/04/23 12:55:17;;;;;;;6.45;4.35;;;24.90;53.50;;;;;;5052706;28;20102;-69
2022/04/23 12:57:46;;;;;;;8.23;4.30;;;24.90;53.30;;;;;;5051783;28;20049;-70
2022/04/23 13:00:16;;;;;;;4.97;4.15;;;24.80;53.20;;;;;;5051340;28;20064;-70
2022/04/23 13:02:45;;;;;;;6.00;4.70;;;24.60;53.20;;;;;;5051900;28;20053;-70
2022/04/23 13:05:12;;;;;;;7.60;4.22;;;24.70;52.90;;;;;;5051856;28;20133;-70
2022/04/23 13:10:25;;;;;;;5.03;4.18;;;24.20;52.80;;;;;;5052439;28;20206;-70
2022/04/23 13:12:52;;;;;;;5.30;3.58;;;24.60;53.20;;;;;;5051857;28;20444;-70
2022/04/23 13:15:19;;;;;;;6.40;3.75;;;25.10;53.90;;;;;;5051001;28;20497;-70
2022/04/23 13:17:47;;;;;;;5.60;4.22;;;24.90;52.70;;;;;;5052480;28;20114;-71
2022/04/23 13:20:15;;;;;;;7.35;4.00;;;24.90;52.40;;;;;;5050614;28;20106;-71
2022/04/23 13:22:43;;;;;;;5.38;3.72;;;24.80;52.20;;;;;;5052413;28;20053;-71
2022/04/23 13:25:13;;;;;;;6.30;4.05;;;25.40;52.70;;;;;;5051036;28;20424;-70
2022/04/23 13:27:41;;;;;;;5.95;3.40;;;25.20;52.80;;;;;;5051659;28;20057;-70
2022/04/23 13:30:09;;;;;;;14.73;4.72;;;25.80;52.20;;;;;;5050968;28;20053;-70